Time;durP1;ratioP1;P1;durP2;ratioP2;P2;SDS_P1;SDS_P2;PMS_P1;PMS_P2;Temp;Humidity;BMP_temperature;BMP_pressure;BME280_temperature;BME280_humidity;BME280_pressure;Samples;Min_cycle;Max_cycle;Signal;HPM_P1;HPM_P2
2024/02/09 00:01:36;;;;;;;19.73;3.10;;;;;;;10.68;100.00;97144.94;5054469;28;20036;-71
2024/02/09 00:04:03;;;;;;;17.25;3.58;;;;;;;10.66;100.00;97148.06;5057287;28;20043;-71
2024/02/09 00:06:29;;;;;;;19.23;3.72;;;;;;;10.67;100.00;97140.53;5026329;28;20484;-71
2024/02/09 00:08:55;;;;;;;18.92;3.47;;;;;;;10.68;100.00;97139.38;5059075;28;20028;-72
2024/02/09 00:11:21;;;;;;;21.33;2.92;;;;;;;10.71;100.00;97141.41;5058998;28;20385;-72
2024/02/09 00:13:47;;;;;;;20.25;3.63;;;;;;;10.72;100.00;97151.31;5059194;28;20052;-71
2024/02/09 00:16:13;;;;;;;17.67;2.80;;;;;;;10.70;100.00;97142.59;5059068;28;20060;-71
2024/02/09 00:18:39;;;;;;;13.52;2.25;;;;;;;10.71;100.00;97144.97;5029923;28;20033;-71
2024/02/09 00:21:05;;;;;;;15.15;2.53;;;;;;;10.75;100.00;97170.00;5075765;28;20037;-72
2024/02/09 00:23:32;;;;;;;13.05;2.72;;;;;;;10.76;100.00;97179.13;5055889;28;20044;-71
2024/02/09 00:26:01;;;;;;;19.98;3.00;;;;;;;10.76;100.00;97179.94;5059089;28;20036;-72
2024/02/09 00:28:27;;;;;;;16.13;2.70;;;;;;;10.79;100.00;97179.19;5075264;28;20030;-71
2024/02/09 00:30:54;;;;;;;16.52;2.50;;;;;;;10.78;100.00;97177.59;5041457;28;20059;-72
2024/02/09 00:33:20;;;;;;;13.30;2.67;;;;;;;10.79;100.00;97181.94;5083109;28;20029;-72
2024/02/09 00:35:46;;;;;;;10.43;1.75;;;;;;;10.82;100.00;97183.97;5042503;28;21284;-71
2024/02/09 00:38:11;;;;;;;14.60;2.53;;;;;;;10.81;100.00;97181.56;5067602;28;20365;-71
2024/02/09 00:40:38;;;;;;;20.75;3.40;;;;;;;10.82;100.00;97178.41;5045729;28;20452;-72
2024/02/09 00:43:04;;;;;;;13.40;2.30;;;;;;;10.81;100.00;97193.50;5058135;28;20031;-71
2024/02/09 00:45:33;;;;;;;21.15;2.97;;;;;;;10.82;100.00;97186.75;5050586;28;20025;-71
2024/02/09 00:48:00;;;;;;;16.65;2.95;;;;;;;10.81;100.00;97182.38;5057980;28;20108;-71
2024/02/09 00:50:25;;;;;;;20.48;3.10;;;;;;;10.85;100.00;97182.44;5071283;28;20031;-72
2024/02/09 00:52:51;;;;;;;24.40;3.30;;;;;;;10.85;100.00;97197.09;5029198;28;20080;-71
2024/02/09 00:55:17;;;;;;;22.58;4.05;;;;;;;10.84;100.00;97173.31;5070810;28;20051;-71
2024/02/09 00:57:43;;;;;;;21.98;3.30;;;;;;;10.83;100.00;97182.78;5041986;28;20028;-71
2024/02/09 01:00:12;;;;;;;24.08;3.30;;;;;;;10.83;100.00;97180.00;5084778;28;20032;-71
2024/02/09 01:02:37;;;;;;;27.27;3.65;;;;;;;10.83;100.00;97182.78;5070622;28;20071;-72
2024/02/09 01:05:03;;;;;;;30.77;4.03;;;;;;;10.82;100.00;97183.97;5088007;28;20036;-72
2024/02/09 01:07:29;;;;;;;26.48;3.83;;;;;;;10.82;100.00;97183.97;5070177;28;20081;-71
2024/02/09 01:09:58;;;;;;;27.80;3.90;;;;;;;10.80;100.00;97175.22;5069761;28;20028;-72
2024/02/09 02:45:11;;;;;;;23.77;3.45;;;;;;;10.02;100.00;97220.00;5067583;28;20025;-72
2024/02/09 02:47:38;;;;;;;21.08;4.13;;;;;;;9.99;100.00;97217.97;5060395;28;20049;-72
2024/02/09 03:06:28;;;;;;;36.55;4.13;;;;;;;10.09;100.00;97237.94;5021008;28;20033;-72
2024/02/09 03:08:54;;;;;;;35.35;5.03;;;;;;;10.10;100.00;97247.84;5056818;28;20037;-72
2024/02/09 03:11:19;;;;;;;33.10;4.45;;;;;;;10.09;100.00;97254.59;5040079;28;20543;-71
2024/02/09 03:13:45;;;;;;;30.83;3.88;;;;;;;10.07;100.00;97244.66;5040263;28;20033;-72
2024/02/09 03:16:15;;;;;;;27.38;3.88;;;;;;;10.07;100.00;97258.50;5040196;28;20025;-72
2024/02/09 03:18:40;;;;;;;33.35;4.47;;;;;;;10.05;100.00;97254.50;5039872;28;20512;-71
2024/02/09 03:21:06;;;;;;;27.23;3.92;;;;;;;10.05;100.00;97258.06;5040299;28;20045;-71
2024/02/09 03:23:31;;;;;;;32.47;4.10;;;;;;;10.06;100.00;97256.13;5040061;28;20037;-71
2024/02/09 03:25:56;;;;;;;36.83;4.90;;;;;;;10.04;100.00;97250.13;5039830;28;20040;-71
2024/02/09 03:28:22;;;;;;;34.33;3.75;;;;;;;10.03;100.00;97248.53;5056636;28;20045;-72
2024/02/09 03:30:48;;;;;;;31.27;4.50;;;;;;;9.99;100.00;97247.66;5056489;28;20081;-71
2024/02/09 03:33:13;;;;;;;35.15;4.28;;;;;;;9.97;100.00;97250.81;5029279;28;20029;-71
2024/02/09 03:35:39;;;;;;;28.42;4.20;;;;;;;9.96;100.00;97254.75;5022694;28;20028;-71
2024/02/09 03:38:05;;;;;;;34.15;4.43;;;;;;;9.94;100.00;97254.31;5023013;28;20029;-71
2024/02/09 03:40:32;;;;;;;31.05;4.57;;;;;;;9.96;100.00;97254.75;5023195;28;20025;-71
2024/02/09 03:42:57;;;;;;;30.67;4.38;;;;;;;9.94;100.00;97259.84;5044711;28;20085;-71
2024/02/09 03:45:23;;;;;;;20.50;3.38;;;;;;;9.94;100.00;97261.81;5031527;28;20030;-71
2024/02/09 03:47:51;;;;;;;28.60;3.67;;;;;;;9.92;100.00;97265.00;5062615;28;20048;-71
2024/02/09 03:50:16;;;;;;;32.63;4.20;;;;;;;9.93;100.00;97260.25;5073592;28;20039;-71
2024/02/09 03:52:44;;;;;;;27.77;4.25;;;;;;;9.92;100.00;97265.00;5066907;28;20028;-72
2024/02/09 03:55:17;;;;;;;28.80;4.50;;;;;;;9.91;100.00;97262.56;5089834;28;20035;-72
2024/02/09 03:57:44;;;;;;;24.25;3.53;;;;;;;9.91;100.00;97257.81;5071364;28;20095;-72
2024/02/09 04:00:15;;;;;;;28.02;3.95;;;;;;;9.93;100.00;97265.78;5038616;28;20028;-71
2024/02/09 04:02:42;;;;;;;32.55;4.70;;;;;;;9.92;100.00;97270.53;5071789;28;20040;-72
2024/02/09 04:05:10;;;;;;;36.10;4.03;;;;;;;9.95;100.00;97264.25;5087255;28;20493;-71
2024/02/09 04:07:36;;;;;;;34.40;3.75;;;;;;;9.95;100.00;97269.00;5071889;28;20027;-72
2024/02/09 04:10:02;;;;;;;33.38;4.22;;;;;;;9.94;100.00;97262.63;5053556;28;20032;-71
2024/02/09 04:12:28;;;;;;;26.92;3.63;;;;;;;9.96;100.00;97271.38;5055429;28;20101;-72
2024/02/09 04:14:55;;;;;;;25.20;3.53;;;;;;;9.96;100.00;97274.16;5069657;28;20020;-72
2024/02/09 04:17:21;;;;;;;35.47;4.70;;;;;;;9.96;100.00;97276.94;5055946;28;20455;-71
2024/02/09 04:19:46;;;;;;;24.27;4.45;;;;;;;9.97;100.00;97275.78;5051851;28;20039;-71
2024/02/09 04:22:12;;;;;;;36.35;4.88;;;;;;;9.95;100.00;97275.34;5089415;28;20040;-71
2024/02/09 04:24:37;;;;;;;23.52;3.85;;;;;;;9.97;100.00;97284.09;5067815;28;20028;-71
2024/02/09 04:27:03;;;;;;;39.13;6.20;;;;;;;9.99;100.00;97281.72;5063930;28;20040;-71
2024/02/09 04:29:28;;;;;;;31.65;4.93;;;;;;;10.00;100.00;97286.13;5051557;28;20064;-71
2024/02/09 04:31:55;;;;;;;30.00;5.22;;;;;;;9.99;100.00;97280.94;5055607;28;20429;-71
2024/02/09 04:34:21;;;;;;;39.53;4.63;;;;;;;10.01;100.00;97284.16;5062068;28;20059;-72
2024/02/09 04:36:50;;;;;;;35.17;5.05;;;;;;;9.98;100.00;97294.00;5054368;28;20030;-72
2024/02/09 04:39:15;;;;;;;32.08;5.30;;;;;;;10.00;100.00;97294.44;5049999;28;20047;-71
2024/02/09 04:41:44;;;;;;;42.67;4.78;;;;;;;10.02;100.00;97292.06;5071796;28;20032;-72
2024/02/09 04:44:10;;;;;;;34.03;4.28;;;;;;;10.01;100.00;97301.56;5044841;28;20481;-71
2024/02/09 04:46:35;;;;;;;43.53;5.32;;;;;;;10.01;100.00;97301.56;5061815;28;20094;-71
2024/02/09 04:49:02;;;;;;;32.67;4.38;;;;;;;10.01;100.00;97307.13;5061502;28;20036;-71
2024/02/09 04:51:33;;;;;;;36.38;4.32;;;;;;;10.04;100.00;97308.34;5058560;28;20037;-71
2024/02/09 04:53:59;;;;;;;34.45;4.30;;;;;;;10.02;100.00;97300.41;5069392;28;20028;-72
2024/02/09 04:56:26;;;;;;;33.45;5.10;;;;;;;10.05;100.00;97307.19;5057888;28;20544;-71
2024/02/09 04:58:51;;;;;;;43.60;4.47;;;;;;;10.04;100.00;97305.59;5055389;28;20103;-71
2024/02/09 05:01:27;;;;;;;31.05;3.78;;;;;;;10.05;100.00;97307.97;5066951;28;20032;-71
2024/02/09 05:03:55;;;;;;;32.65;4.50;;;;;;;10.04;100.00;97311.13;5047550;28;20111;-72
2024/02/09 05:06:20;;;;;;;29.92;4.07;;;;;;;10.05;100.00;97307.97;5058132;28;20089;-72
2024/02/09 05:08:46;;;;;;;35.13;4.65;;;;;;;10.02;100.00;97303.16;5057990;28;20036;-71
2024/02/09 05:11:12;;;;;;;27.92;3.80;;;;;;;10.03;100.00;97298.44;5041184;28;20062;-72
2024/02/09 05:13:38;;;;;;;34.22;5.10;;;;;;;10.02;100.00;97302.38;5074391;28;20012;-71
2024/02/09 05:16:03;;;;;;;38.70;4.68;;;;;;;9.99;100.00;97303.91;5024799;28;20036;-71
2024/02/09 05:18:29;;;;;;;28.65;3.67;;;;;;;9.95;100.00;97294.75;5057835;28;20449;-71
2024/02/09 05:20:54;;;;;;;34.25;4.38;;;;;;;9.95;100.00;97297.50;5074603;28;20484;-71
2024/02/09 05:23:20;;;;;;;31.77;3.88;;;;;;;9.92;100.00;97301.03;5057722;28;20036;-72
2024/02/09 05:25:45;;;;;;;22.38;3.30;;;;;;;9.90;100.00;97299.78;5040896;28;20397;-71
2024/02/09 05:28:11;;;;;;;29.33;4.03;;;;;;;9.88;100.00;97294.59;5074685;28;20096;-72
2024/02/09 05:30:36;;;;;;;33.65;4.10;;;;;;;9.87;100.00;97286.66;5023759;28;20078;-71
2024/02/09 05:33:04;;;;;;;26.35;3.28;;;;;;;9.83;100.00;97283.81;5081437;28;20500;-71
2024/02/09 05:35:29;;;;;;;30.73;3.75;;;;;;;9.82;100.00;97291.31;5057923;28;20060;-71
2024/02/09 05:37:55;;;;;;;24.20;3.47;;;;;;;9.81;100.00;97283.41;5045017;28;20028;-72
2024/02/09 05:40:20;;;;;;;25.40;3.63;;;;;;;9.77;100.00;97279.75;5040886;28;20036;-71
2024/02/09 05:42:46;;;;;;;33.83;4.43;;;;;;;9.75;100.00;97293.16;5060370;28;20558;-71
2024/02/09 05:45:11;;;;;;;34.60;4.82;;;;;;;9.72;100.00;97289.16;5033784;28;20025;-72
2024/02/09 05:47:37;;;;;;;23.48;3.28;;;;;;;9.70;100.00;97285.16;5063751;28;20430;-71
2024/02/09 05:50:02;;;;;;;27.63;4.32;;;;;;;9.69;100.00;97289.09;5072888;28;20493;-72
2024/02/09 05:52:27;;;;;;;31.63;3.88;;;;;;;9.63;100.00;97294.91;5064864;28;20070;-71
2024/02/09 05:54:53;;;;;;;35.53;4.70;;;;;;;9.61;100.00;97290.91;5090696;28;20024;-71
2024/02/09 05:57:19;;;;;;;21.02;3.15;;;;;;;9.56;100.00;97296.78;5084386;28;20040;-72
2024/02/09 05:59:44;;;;;;;25.45;2.97;;;;;;;9.55;100.00;97301.47;5072910;28;20024;-71
2024/02/09 06:02:10;;;;;;;17.20;3.40;;;;;;;9.52;100.00;97312.50;5051469;28;20060;-71
2024/02/09 06:04:38;;;;;;;27.30;4.22;;;;;;;9.52;100.00;97306.97;5056421;28;20153;-71
2024/02/09 06:07:04;;;;;;;27.90;3.42;;;;;;;9.48;100.00;97301.34;5084880;28;20097;-71
2024/02/09 06:09:29;;;;;;;27.90;3.78;;;;;;;9.49;100.00;97308.50;5056475;28;20538;-71
2024/02/09 06:11:57;;;;;;;30.20;3.95;;;;;;;9.47;100.00;97299.75;5051827;28;20033;-71
2024/02/09 06:14:23;;;;;;;29.52;4.10;;;;;;;9.47;100.00;97305.31;5056899;28;20028;-71
2024/02/09 06:16:48;;;;;;;32.50;9.10;;;;;;;9.47;100.00;97305.31;5051999;28;20025;-72
2024/02/09 06:19:13;;;;;;;25.83;5.38;;;;;;;9.46;100.00;97302.88;5039674;28;20024;-71
2024/02/09 06:21:40;;;;;;;34.47;5.70;;;;;;;9.47;100.00;97305.31;5084045;28;20037;-71
2024/02/09 06:24:06;;;;;;;31.60;5.65;;;;;;;9.48;100.00;97306.91;5057962;28;20024;-72
2024/02/09 06:26:31;;;;;;;36.35;5.05;;;;;;;9.51;100.00;97305.38;5051120;28;20112;-71
2024/02/09 06:28:57;;;;;;;30.00;4.75;;;;;;;9.50;100.00;97304.56;5047761;28;20539;-72
2024/02/09 06:31:25;;;;;;;30.38;5.78;;;;;;;9.52;100.00;97299.44;5055019;28;20032;-71
2024/02/09 06:33:52;;;;;;;29.65;4.40;;;;;;;9.51;100.00;97306.16;5050231;28;20028;-71
2024/02/09 06:36:21;;;;;;;29.33;4.00;;;;;;;9.56;100.00;97305.88;5067305;28;20088;-71
2024/02/09 06:38:48;;;;;;;30.00;4.13;;;;;;;9.58;100.00;97303.53;5068400;28;20028;-71
2024/02/09 06:41:13;;;;;;;26.73;4.38;;;;;;;9.58;100.00;97299.94;5067917;28;20487;-71
2024/02/09 06:43:39;;;;;;;27.48;4.35;;;;;;;9.60;100.00;97309.50;5083390;28;20032;-71
2024/02/09 06:46:04;;;;;;;27.20;3.78;;;;;;;9.61;100.00;97305.59;5055007;28;20036;-72
2024/02/09 06:48:30;;;;;;;34.47;4.10;;;;;;;9.64;100.00;97304.06;5014874;28;20049;-71
2024/02/09 06:50:58;;;;;;;26.58;3.80;;;;;;;9.66;100.00;97296.16;5040722;28;20036;-71
2024/02/09 06:53:24;;;;;;;28.98;3.75;;;;;;;9.69;100.00;97289.09;5018880;28;20470;-71
2024/02/09 06:55:52;;;;;;;23.88;3.63;;;;;;;9.69;100.00;97292.66;5007588;28;20121;-71
2024/02/09 06:58:19;;;;;;;36.50;5.15;;;;;;;9.71;100.00;97289.53;5024815;28;20036;-71
2024/02/09 07:00:45;;;;;;;34.28;4.25;;;;;;;9.69;100.00;97300.16;5040826;28;20051;-72
2024/02/09 07:03:15;;;;;;;32.03;4.43;;;;;;;9.69;100.00;97300.97;5040492;28;20056;-72
2024/02/09 07:05:41;;;;;;;30.15;4.20;;;;;;;9.69;100.00;97289.09;5041131;28;20041;-71
2024/02/09 07:08:07;;;;;;;30.65;4.38;;;;;;;9.69;100.00;97289.88;5022136;28;20040;-71
2024/02/09 07:10:33;;;;;;;31.55;5.03;;;;;;;9.70;100.00;97291.50;5040251;28;20033;-72
2024/02/09 07:12:59;;;;;;;32.67;4.78;;;;;;;9.72;100.00;97299.44;5040432;28;20021;-72
2024/02/09 07:15:25;;;;;;;25.55;3.42;;;;;;;9.73;100.00;97289.97;5023687;28;20075;-71
2024/02/09 07:17:51;;;;;;;28.55;4.05;;;;;;;9.73;100.00;97295.50;5040359;28;20029;-71
2024/02/09 07:20:17;;;;;;;28.42;4.63;;;;;;;9.74;100.00;97292.34;5032349;28;20033;-71
2024/02/09 07:22:43;;;;;;;28.33;4.35;;;;;;;9.77;100.00;97301.91;5040126;28;20043;-71
2024/02/09 07:25:08;;;;;;;30.30;4.45;;;;;;;9.76;100.00;97301.13;5023584;28;20024;-71
2024/02/09 07:27:34;;;;;;;27.10;4.20;;;;;;;9.75;100.00;97298.69;5050409;28;20033;-72
2024/02/09 07:29:59;;;;;;;30.45;3.85;;;;;;;9.69;100.00;97308.47;5022756;28;20094;-71
2024/02/09 07:32:25;;;;;;;27.48;4.55;;;;;;;9.71;100.00;97320.00;5031295;28;20056;-71
2024/02/09 07:34:52;;;;;;;32.15;4.10;;;;;;;9.71;100.00;97311.69;5039949;28;20029;-71
2024/02/09 07:37:19;;;;;;;28.17;4.60;;;;;;;9.72;100.00;97319.66;5040040;28;20021;-72
2024/02/09 07:39:44;;;;;;;28.13;4.03;;;;;;;9.72;100.00;97314.13;5023572;28;20033;-72
2024/02/09 07:42:11;;;;;;;33.13;3.95;;;;;;;9.74;100.00;97322.03;5038384;28;20029;-71
2024/02/09 07:44:36;;;;;;;26.95;3.88;;;;;;;9.74;100.00;97324.81;5040874;28;20035;-71
2024/02/09 07:47:06;;;;;;;31.50;4.03;;;;;;;9.76;100.00;97322.50;5042337;28;20513;-71
2024/02/09 07:49:32;;;;;;;27.35;3.35;;;;;;;9.75;100.00;97323.63;5035167;28;20029;-71
2024/02/09 07:51:58;;;;;;;27.08;4.10;;;;;;;9.75;100.00;97329.19;5005274;28;20036;-71
2024/02/09 07:54:26;;;;;;;32.58;4.43;;;;;;;9.79;100.00;97332.84;5038685;28;20048;-71
2024/02/09 07:56:52;;;;;;;30.45;4.22;;;;;;;9.77;100.00;97329.63;5039683;28;20033;-71
2024/02/09 07:59:18;;;;;;;31.02;4.00;;;;;;;9.77;100.00;97333.19;5056125;28;20029;-71
2024/02/09 08:01:44;;;;;;;30.98;4.38;;;;;;;9.80;100.00;97334.44;5055918;28;20025;-71
2024/02/09 08:04:09;;;;;;;33.17;3.67;;;;;;;9.80;100.00;97323.34;5023391;28;20044;-72
2024/02/09 08:06:35;;;;;;;32.15;3.90;;;;;;;9.80;100.00;97323.34;5022970;28;20029;-72
2024/02/09 08:09:00;;;;;;;39.50;3.88;;;;;;;9.82;100.00;97332.09;5011147;28;20028;-72
2024/02/09 08:11:26;;;;;;;27.77;3.53;;;;;;;9.82;100.00;97346.75;5039109;28;20029;-71
2024/02/09 08:13:52;;;;;;;26.38;4.18;;;;;;;9.84;100.00;97341.66;5011349;28;20021;-71
2024/02/09 08:16:21;;;;;;;28.55;3.67;;;;;;;9.87;100.00;97336.56;5022825;28;20029;-71
2024/02/09 08:18:47;;;;;;;29.48;3.60;;;;;;;9.86;100.00;97344.03;5039192;28;20033;-71
2024/02/09 08:21:13;;;;;;;26.92;3.97;;;;;;;9.85;100.00;97339.69;5039043;28;20047;-71
2024/02/09 08:23:39;;;;;;;24.45;3.42;;;;;;;9.88;100.00;97340.91;5020286;28;20037;-71
2024/02/09 08:26:06;;;;;;;30.63;3.58;;;;;;;9.89;100.00;97334.19;5021176;28;20033;-72
2024/02/09 08:28:32;;;;;;;26.50;3.53;;;;;;;9.89;100.00;97336.97;5022417;28;20032;-71
2024/02/09 08:30:58;;;;;;;24.13;3.60;;;;;;;9.90;100.00;97333.84;5038467;28;20041;-71
2024/02/09 08:33:24;;;;;;;25.45;3.40;;;;;;;9.91;100.00;97340.19;5044005;28;20025;-72
2024/02/09 08:35:49;;;;;;;23.38;3.30;;;;;;;9.93;100.00;97329.53;5039033;28;20604;-72
2024/02/09 08:38:16;;;;;;;19.23;3.25;;;;;;;9.97;100.00;97325.69;5038555;28;20040;-72
2024/02/09 08:40:42;;;;;;;21.17;3.70;;;;;;;9.98;100.00;97340.34;5038339;28;20397;-72
2024/02/09 08:43:08;;;;;;;24.45;3.28;;;;;;;9.99;100.00;97342.72;5038579;28;20020;-71
2024/02/09 08:45:35;;;;;;;21.70;2.80;;;;;;;10.01;100.00;97340.38;5038465;28;20021;-72
2024/02/09 08:48:01;;;;;;;21.77;3.25;;;;;;;10.02;100.00;97339.22;5081813;28;20086;-71
2024/02/09 08:50:27;;;;;;;24.30;3.15;;;;;;;10.05;100.00;97355.09;5067982;28;20052;-72
2024/02/09 08:52:54;;;;;;;25.05;3.20;;;;;;;10.04;100.00;97349.94;5051469;28;20032;-71
2024/02/09 08:55:21;;;;;;;19.77;2.90;;;;;;;10.09;100.00;97346.09;5046640;28;20043;-72
2024/02/09 08:57:46;;;;;;;26.23;4.20;;;;;;;10.10;100.00;97344.91;5072305;28;20032;-72
2024/02/09 09:00:12;;;;;;;18.27;2.53;;;;;;;10.11;100.00;97340.94;5053768;28;20027;-72
2024/02/09 09:02:38;;;;;;;23.83;3.03;;;;;;;10.12;100.00;97356.44;5054469;28;20032;-71
2024/02/09 09:05:06;;;;;;;26.15;3.55;;;;;;;10.16;100.00;97337.88;5077750;28;20040;-71
2024/02/09 09:07:32;;;;;;;24.38;2.88;;;;;;;10.18;100.00;97338.31;5050589;28;20032;-72
2024/02/09 09:09:57;;;;;;;16.95;3.00;;;;;;;10.19;100.00;97345.47;5036973;28;20083;-71
2024/02/09 09:12:23;;;;;;;26.23;3.42;;;;;;;10.22;100.00;97336.41;5070707;28;20023;-71
2024/02/09 09:14:48;;;;;;;20.77;3.15;;;;;;;10.22;100.00;97340.00;5069886;28;20026;-71
2024/02/09 09:17:14;;;;;;;20.25;3.42;;;;;;;10.26;100.00;97340.06;5054621;28;20028;-71
2024/02/09 09:19:41;;;;;;;25.45;2.78;;;;;;;10.27;100.00;97336.13;5070609;28;20040;-71
2024/02/09 09:22:08;;;;;;;27.73;3.15;;;;;;;10.28;100.00;97335.78;5088554;28;20036;-71
2024/02/09 09:24:34;;;;;;;25.85;3.47;;;;;;;10.32;100.00;97341.38;5062878;28;20032;-71
2024/02/09 09:26:59;;;;;;;21.38;3.40;;;;;;;10.35;100.00;97343.41;5071114;28;20122;-72
2024/02/09 09:29:25;;;;;;;20.95;2.85;;;;;;;10.37;100.00;97338.28;5070406;28;20032;-71
2024/02/09 09:31:51;;;;;;;39.60;4.05;;;;;;;10.41;100.00;97343.91;5070341;28;20031;-71
2024/02/09 09:34:16;;;;;;;22.25;3.47;;;;;;;10.46;100.00;97340.81;5087583;28;20028;-72
2024/02/09 09:36:42;;;;;;;23.42;3.80;;;;;;;10.50;100.00;97344.44;5056571;28;20047;-71
2024/02/09 09:39:07;;;;;;;22.15;2.85;;;;;;;10.52;100.00;97345.69;5084341;28;20028;-71
2024/02/09 09:41:36;;;;;;;28.80;4.07;;;;;;;10.59;100.00;97344.22;5068213;28;20112;-71
2024/02/09 09:44:02;;;;;;;23.15;3.78;;;;;;;10.61;100.00;97341.84;5049644;28;20613;-71
2024/02/09 09:46:30;;;;;;;27.05;3.35;;;;;;;10.64;100.00;97341.94;5075390;28;20040;-72
2024/02/09 09:48:56;;;;;;;35.58;4.53;;;;;;;10.69;100.00;97341.59;5072305;28;20032;-71
2024/02/09 09:51:22;;;;;;;31.95;3.92;;;;;;;10.73;100.00;97336.13;5077512;28;20089;-72
2024/02/09 09:53:50;;;;;;;29.63;3.95;;;;;;;10.76;100.00;97335.38;5093278;28;20036;-71
2024/02/09 09:56:16;;;;;;;26.17;3.88;;;;;;;10.80;100.00;97338.19;5061903;28;20032;-72
2024/02/09 09:58:42;;;;;;;28.08;3.97;;;;;;;10.84;100.00;97325.19;5061705;28;20578;-71
2024/02/09 10:01:14;;;;;;;35.75;4.10;;;;;;;10.87;100.00;97330.78;5076666;28;20115;-72
2024/02/09 10:03:40;;;;;;;39.90;5.10;;;;;;;10.89;100.00;97327.63;5054426;28;20025;-72
2024/02/09 10:06:06;;;;;;;30.85;3.67;;;;;;;10.94;100.00;97322.53;5047446;28;20040;-71
2024/02/09 10:08:35;;;;;;;34.00;3.90;;;;;;;11.00;100.00;97322.22;5058817;28;20028;-72
2024/02/09 10:11:01;;;;;;;33.67;4.63;;;;;;;11.05;100.00;97319.94;5069395;28;20024;-72
2024/02/09 10:13:28;;;;;;;45.72;4.70;;;;;;;11.07;100.00;97317.59;5055361;28;20020;-72
2024/02/09 10:15:55;;;;;;;44.28;5.15;;;;;;;11.12;100.00;97313.69;5027200;28;20032;-72
2024/02/09 10:18:20;;;;;;;34.10;5.40;;;;;;;11.14;100.00;97308.53;5071400;28;20043;-72
2024/02/09 10:20:46;;;;;;;31.27;4.80;;;;;;;11.16;100.00;97314.53;5071152;28;20040;-72
2024/02/09 10:23:21;;;;;;;36.90;5.35;;;;;;;11.21;100.00;97311.44;5052447;28;20078;-72
2024/02/09 10:25:47;;;;;;;32.13;4.63;;;;;;;11.24;100.00;97304.31;5035687;28;20035;-72
2024/02/09 10:28:13;;;;;;;39.80;4.25;;;;;;;11.24;100.00;97312.66;5082078;28;20036;-72
2024/02/09 10:30:39;;;;;;;30.25;3.80;;;;;;;11.26;100.00;97302.78;5054296;28;20392;-72
2024/02/09 10:33:11;;;;;;;27.48;4.40;;;;;;;11.30;100.00;97295.28;5064409;28;20038;-72
2024/02/09 10:35:57;;;;;;;25.77;3.85;;;;;;;11.35;100.00;97303.28;5067008;28;20149;-72
2024/02/09 10:38:31;;;;;;;31.48;4.10;;;;;;;11.40;100.00;97296.59;5095063;28;20035;-72
2024/02/09 10:40:56;;;;;;;21.20;3.20;;;;;;;11.39;100.00;97295.81;5050437;28;20028;-72
2024/02/09 10:43:23;;;;;;;28.77;4.45;;;;;;;11.40;100.00;97291.84;5031978;28;20094;-72
2024/02/09 10:45:50;;;;;;;24.23;4.03;;;;;;;11.41;100.00;97301.75;5058675;28;20028;-72
2024/02/09 10:48:20;;;;;;;26.55;3.40;;;;;;;11.40;100.00;97291.84;5045612;28;20098;-71
2024/02/09 10:50:45;;;;;;;22.98;3.17;;;;;;;11.43;100.00;97284.72;5064155;28;20032;-71
2024/02/09 10:53:12;;;;;;;25.38;3.42;;;;;;;11.44;100.00;97285.53;5066794;28;20538;-72
2024/02/09 10:55:39;;;;;;;22.25;3.67;;;;;;;11.41;100.00;97284.31;5050300;28;20027;-71
2024/02/09 10:58:04;;;;;;;19.25;3.42;;;;;;;11.39;100.00;97284.69;5031303;28;20401;-71
2024/02/09 11:00:31;;;;;;;14.32;2.55;;;;;;;11.38;100.00;97274.75;5044965;28;20028;-71
2024/02/09 11:02:57;;;;;;;25.70;3.58;;;;;;;11.36;100.00;97285.41;5073642;28;20377;-72
2024/02/09 11:05:22;;;;;;;25.98;7.05;;;;;;;11.33;100.00;97275.06;5056522;28;20051;-71
2024/02/09 11:07:49;;;;;;;17.35;4.68;;;;;;;11.31;100.00;97274.66;5076495;28;20032;-71
2024/02/09 11:10:17;;;;;;;22.67;4.05;;;;;;;11.30;100.00;97269.47;5082867;28;20452;-71
2024/02/09 11:12:43;;;;;;;13.20;2.90;;;;;;;11.27;100.00;97270.22;5069236;28;20021;-72
2024/02/09 11:15:13;;;;;;;18.83;2.92;;;;;;;11.28;100.00;97267.09;5080108;28;20468;-71
2024/02/09 11:17:49;;;;;;;14.85;2.45;;;;;;;11.28;100.00;97255.16;5088829;28;20032;-71
2024/02/09 11:20:15;;;;;;;14.40;2.90;;;;;;;11.29;100.00;97260.34;5053742;28;20051;-71
2024/02/09 11:22:44;;;;;;;18.73;2.95;;;;;;;11.30;100.00;97252.81;5067929;28;20045;-71
2024/02/09 11:25:10;;;;;;;18.63;3.05;;;;;;;11.31;100.00;97259.94;5044469;28;20032;-72
2024/02/09 11:27:36;;;;;;;18.88;3.17;;;;;;;11.31;100.00;97254.41;5078086;28;20362;-71
2024/02/09 11:30:03;;;;;;;18.38;3.75;;;;;;;11.31;100.00;97252.44;5059690;28;20058;-71
2024/02/09 11:32:28;;;;;;;24.55;4.20;;;;;;;11.30;100.00;97248.03;5081643;28;20031;-71
2024/02/09 11:34:57;;;;;;;20.42;3.13;;;;;;;11.35;100.00;97244.94;5043025;28;20050;-71
2024/02/09 11:37:23;;;;;;;26.65;3.47;;;;;;;11.37;100.00;97239.00;5051568;28;20032;-71
2024/02/09 11:39:49;;;;;;;21.83;3.47;;;;;;;11.38;100.00;97238.63;5068636;28;20430;-71
2024/02/09 11:42:17;;;;;;;33.08;4.32;;;;;;;11.42;100.00;97221.97;5075839;28;20038;-71
2024/02/09 11:44:42;;;;;;;29.55;3.63;;;;;;;11.45;100.00;97228.75;5054503;28;20037;-71
2024/02/09 11:47:08;;;;;;;22.00;3.80;;;;;;;11.50;100.00;97220.09;5065069;28;20048;-72
2024/02/09 11:49:33;;;;;;;24.95;3.50;;;;;;;11.54;100.00;97212.59;5070840;28;20051;-71
2024/02/09 11:52:03;;;;;;;34.67;5.18;;;;;;;11.58;100.00;97216.22;5067048;28;20032;-72
2024/02/09 11:54:33;;;;;;;31.45;4.22;;;;;;;11.64;100.00;97211.91;5070751;28;20085;-71
2024/02/09 11:56:59;;;;;;;31.73;3.80;;;;;;;11.71;100.00;97189.75;5083986;28;20034;-71
2024/02/09 11:59:25;;;;;;;29.88;4.07;;;;;;;11.75;100.00;97192.56;5064384;28;20118;-71
2024/02/09 12:01:53;;;;;;;26.90;3.85;;;;;;;11.78;100.00;97187.06;5068063;28;20028;-71
2024/02/09 12:04:20;;;;;;;26.10;3.63;;;;;;;11.82;100.00;97178.72;5048081;28;20028;-72
2024/02/09 12:06:46;;;;;;;29.08;4.32;;;;;;;11.89;100.00;97167.69;5041083;28;20031;-72
2024/02/09 12:09:13;;;;;;;29.10;3.50;;;;;;;11.95;100.00;97176.47;5064591;28;20433;-72
2024/02/09 12:11:38;;;;;;;29.33;3.70;;;;;;;12.02;100.00;97193.25;5045576;28;20036;-72
2024/02/09 12:14:04;;;;;;;27.27;3.95;;;;;;;12.08;100.00;97192.47;5077946;28;20468;-71
2024/02/09 12:16:30;;;;;;;28.35;3.67;;;;;;;12.12;100.00;97186.97;5054376;28;20107;-71
2024/02/09 12:18:57;;;;;;;23.63;4.35;;;;;;;12.16;100.00;97175.88;5047804;28;20023;-72
2024/02/09 12:21:22;;;;;;;25.25;3.85;;;;;;;12.21;100.00;97176.31;5036996;28;20044;-71
2024/02/09 12:23:49;;;;;;;29.75;4.03;;;;;;;12.27;100.00;97163.63;5058953;28;20032;-71
2024/02/09 12:26:15;;;;;;;33.45;4.20;;;;;;;12.32;100.00;97170.81;5044204;28;20414;-72
2024/02/09 12:28:40;;;;;;;26.55;4.20;;;;;;;12.40;100.00;97158.56;5050836;28;20036;-72
2024/02/09 12:31:07;;;;;;;27.35;3.58;;;;;;;12.49;100.00;97167.34;5094312;28;20028;-72
2024/02/09 12:33:41;;;;;;;23.80;3.78;;;;;;;12.59;100.00;97162.22;5056918;28;20064;-72
2024/02/09 12:36:08;;;;;;;17.55;2.90;;;;;;;12.65;100.00;97149.56;5044171;28;20028;-72
2024/02/09 12:38:40;;;;;;;16.92;2.95;;;;;;;12.78;100.00;97153.59;5071222;28;20024;-72
2024/02/09 12:41:10;;;;;;;25.58;3.60;;;;;;;12.87;100.00;97159.63;5062778;28;20094;-72
2024/02/09 12:43:36;;;;;;;20.73;3.15;;;;;;;13.01;100.00;97147.75;5084537;28;20028;-72
2024/02/09 12:46:01;;;;;;;27.23;3.17;;;;;;;13.06;100.00;97150.13;5039615;28;20074;-72
2024/02/09 12:48:28;;;;;;;31.70;4.05;;;;;;;13.19;100.00;97143.00;5065218;28;20045;-72
2024/02/09 12:51:04;;;;;;;25.65;3.35;;;;;;;13.29;100.00;97135.91;5072762;28;20025;-72
2024/02/09 12:53:30;;;;;;;25.17;3.33;;;;;;;13.35;100.00;97128.75;5057126;28;20044;-72
2024/02/09 12:55:57;;;;;;;19.40;3.08;;;;;;;13.43;100.00;97131.56;5056133;28;20092;-72
2024/02/09 12:58:23;;;;;;;27.17;3.15;;;;;;;13.51;100.00;97122.84;5054796;28;20062;-72
2024/02/09 13:00:49;;;;;;;24.05;3.85;;;;;;;13.62;100.00;97122.81;5043792;28;20028;-71
2024/02/09 13:03:14;;;;;;;23.25;3.97;;;;;;;13.71;100.00;97102.94;5048444;28;20182;-72
2024/02/09 13:05:41;;;;;;;23.70;3.58;;;;;;;13.79;100.00;97108.13;5061643;28;20024;-72